sensor_id;sensor_type;location;lat;lon;timestamp;temperature;humidity
57719;DHT22;43561;50.090;18.522;2023-06-10T00:08:04;15.40;99.90
57719;DHT22;43561;50.090;18.522;2023-06-10T00:18:06;15.50;99.90
57719;DHT22;43561;50.090;18.522;2023-06-10T00:28:08;15.50;99.90
57719;DHT22;43561;50.090;18.522;2023-06-10T00:38:09;15.40;99.90
57719;DHT22;43561;50.090;18.522;2023-06-10T00:48:11;15.50;99.90
57719;DHT22;43561;50.090;18.522;2023-06-10T00:58:15;15.40;99.90
57719;DHT22;43561;50.090;18.522;2023-06-10T01:08:33;15.30;99.90
57719;DHT22;43561;50.090;18.522;2023-06-10T01:18:37;15.20;99.90
57719;DHT22;43561;50.090;18.522;2023-06-10T01:28:51;15.30;99.90
57719;DHT22;43561;50.090;18.522;2023-06-10T01:38:56;15.20;99.90
57719;DHT22;43561;50.090;18.522;2023-06-10T01:48:59;15.30;99.90
57719;DHT22;43561;50.090;18.522;2023-06-10T01:59:01;15.30;99.90
57719;DHT22;43561;50.090;18.522;2023-06-10T02:09:03;15.20;99.90
57719;DHT22;43561;50.090;18.522;2023-06-10T02:19:05;15.30;99.90
57719;DHT22;43561;50.090;18.522;2023-06-10T02:29:07;15.20;99.90
57719;DHT22;43561;50.090;18.522;2023-06-10T02:39:09;15.30;99.90
57719;DHT22;43561;50.090;18.522;2023-06-10T02:49:12;15.30;99.90
57719;DHT22;43561;50.090;18.522;2023-06-10T02:59:14;15.40;99.90
57719;DHT22;43561;50.090;18.522;2023-06-10T03:09:17;15.30;99.90
57719;DHT22;43561;50.090;18.522;2023-06-10T03:19:22;15.20;99.90
57719;DHT22;43561;50.090;18.522;2023-06-10T03:29:26;15.30;99.90
57719;DHT22;43561;50.090;18.522;2023-06-10T03:39:28;15.30;99.90
57719;DHT22;43561;50.090;18.522;2023-06-10T03:49:33;15.30;99.90
57719;DHT22;43561;50.090;18.522;2023-06-10T03:59:36;15.30;99.90
57719;DHT22;43561;50.090;18.522;2023-06-10T04:09:38;15.50;99.90
57719;DHT22;43561;50.090;18.522;2023-06-10T04:19:40;15.60;99.90
57719;DHT22;43561;50.090;18.522;2023-06-10T04:29:42;15.80;99.90
57719;DHT22;43561;50.090;18.522;2023-06-10T04:39:44;15.80;99.90
57719;DHT22;43561;50.090;18.522;2023-06-10T04:49:47;16.00;99.90
57719;DHT22;43561;50.090;18.522;2023-06-10T04:59:49;16.20;99.90
57719;DHT22;43561;50.090;18.522;2023-06-10T05:09:51;16.50;99.90
57719;DHT22;43561;50.090;18.522;2023-06-10T05:19:53;17.00;99.90
57719;DHT22;43561;50.090;18.522;2023-06-10T05:29:54;17.10;99.90
57719;DHT22;43561;50.090;18.522;2023-06-10T05:39:56;17.30;99.90
57719;DHT22;43561;50.090;18.522;2023-06-10T05:49:58;17.50;99.90
57719;DHT22;43561;50.090;18.522;2023-06-10T06:00:00;17.90;99.90
57719;DHT22;43561;50.090;18.522;2023-06-10T06:10:02;19.10;99.90
57719;DHT22;43561;50.090;18.522;2023-06-10T06:20:05;18.40;99.90
57719;DHT22;43561;50.090;18.522;2023-06-10T06:30:08;18.50;99.90
57719;DHT22;43561;50.090;18.522;2023-06-10T06:40:10;18.60;99.90
57719;DHT22;43561;50.090;18.522;2023-06-10T06:50:13;18.30;99.90
57719;DHT22;43561;50.090;18.522;2023-06-10T07:00:15;18.10;99.90
57719;DHT22;43561;50.090;18.522;2023-06-10T07:10:17;18.20;99.90
57719;DHT22;43561;50.090;18.522;2023-06-10T07:20:19;17.90;99.90
57719;DHT22;43561;50.090;18.522;2023-06-10T07:30:21;17.90;99.90
57719;DHT22;43561;50.090;18.522;2023-06-10T07:40:24;18.00;99.90
57719;DHT22;43561;50.090;18.522;2023-06-10T07:50:26;17.60;99.90
57719;DHT22;43561;50.090;18.522;2023-06-10T08:00:28;17.40;99.90
57719;DHT22;43561;50.090;18.522;2023-06-10T08:10:30;17.00;99.90
57719;DHT22;43561;50.090;18.522;2023-06-10T08:20:32;16.80;99.90
57719;DHT22;43561;50.090;18.522;2023-06-10T08:30:34;17.30;99.90
57719;DHT22;43561;50.090;18.522;2023-06-10T08:40:36;17.00;99.90
57719;DHT22;43561;50.090;18.522;2023-06-10T08:50:39;17.40;99.90
57719;DHT22;43561;50.090;18.522;2023-06-10T09:00:42;17.70;99.90
57719;DHT22;43561;50.090;18.522;2023-06-10T09:10:45;18.00;99.90
57719;DHT22;43561;50.090;18.522;2023-06-10T09:20:47;18.60;99.90
57719;DHT22;43561;50.090;18.522;2023-06-10T09:30:49;18.90;99.90
57719;DHT22;43561;50.090;18.522;2023-06-10T09:40:52;20.40;99.90
57719;DHT22;43561;50.090;18.522;2023-06-10T09:50:54;21.00;99.90
57719;DHT22;43561;50.090;18.522;2023-06-10T10:00:56;21.00;99.90
57719;DHT22;43561;50.090;18.522;2023-06-10T10:10:59;20.50;99.90
57719;DHT22;43561;50.090;18.522;2023-06-10T10:21:04;21.40;99.90
57719;DHT22;43561;50.090;18.522;2023-06-10T10:31:09;21.80;99.90
57719;DHT22;43561;50.090;18.522;2023-06-10T10:41:12;22.00;99.90
57719;DHT22;43561;50.090;18.522;2023-06-10T10:51:15;22.60;99.90
57719;DHT22;43561;50.090;18.522;2023-06-10T11:01:17;22.40;99.90
57719;DHT22;43561;50.090;18.522;2023-06-10T11:11:26;22.30;99.90
57719;DHT22;43561;50.090;18.522;2023-06-10T11:21:29;22.00;99.90
57719;DHT22;43561;50.090;18.522;2023-06-10T11:31:38;22.70;99.90
57719;DHT22;43561;50.090;18.522;2023-06-10T11:41:40;22.50;99.90
57719;DHT22;43561;50.090;18.522;2023-06-10T11:51:44;22.60;99.90
57719;DHT22;43561;50.090;18.522;2023-06-10T12:01:45;22.80;99.90
57719;DHT22;43561;50.090;18.522;2023-06-10T12:11:51;22.70;99.90
57719;DHT22;43561;50.090;18.522;2023-06-10T12:21:53;22.10;99.90
57719;DHT22;43561;50.090;18.522;2023-06-10T12:32:02;22.60;99.90
57719;DHT22;43561;50.090;18.522;2023-06-10T12:42:05;22.80;99.90
57719;DHT22;43561;50.090;18.522;2023-06-10T12:52:07;22.80;98.80
57719;DHT22;43561;50.090;18.522;2023-06-10T13:02:09;23.40;99.80
57719;DHT22;43561;50.090;18.522;2023-06-10T13:12:11;23.50;99.90
57719;DHT22;43561;50.090;18.522;2023-06-10T13:22:17;23.00;97.70
57719;DHT22;43561;50.090;18.522;2023-06-10T13:32:19;23.10;95.60
57719;DHT22;43561;50.090;18.522;2023-06-10T13:42:21;23.20;93.50
57719;DHT22;43561;50.090;18.522;2023-06-10T13:52:23;23.50;93.90
57719;DHT22;43561;50.090;18.522;2023-06-10T14:02:25;23.50;93.30
57719;DHT22;43561;50.090;18.522;2023-06-10T14:12:27;23.50;92.30
57719;DHT22;43561;50.090;18.522;2023-06-10T14:22:29;23.40;94.30
57719;DHT22;43561;50.090;18.522;2023-06-10T14:32:31;23.60;95.90
57719;DHT22;43561;50.090;18.522;2023-06-10T14:42:33;23.30;96.40
57719;DHT22;43561;50.090;18.522;2023-06-10T14:52:35;22.90;97.10
57719;DHT22;43561;50.090;18.522;2023-06-10T15:02:37;22.80;96.80
57719;DHT22;43561;50.090;18.522;2023-06-10T15:12:40;22.60;99.20
57719;DHT22;43561;50.090;18.522;2023-06-10T15:22:42;18.40;99.90
57719;DHT22;43561;50.090;18.522;2023-06-10T15:32:44;48.10;99.90
57719;DHT22;43561;50.090;18.522;2023-06-10T15:42:46;33.80;99.90
57719;DHT22;43561;50.090;18.522;2023-06-10T15:52:48;22.00;99.90
57719;DHT22;43561;50.090;18.522;2023-06-10T16:02:50;18.00;99.90
57719;DHT22;43561;50.090;18.522;2023-06-10T16:12:52;17.60;99.90
57719;DHT22;43561;50.090;18.522;2023-06-10T16:22:54;17.30;99.90
57719;DHT22;43561;50.090;18.522;2023-06-10T16:32:56;17.70;99.90
57719;DHT22;43561;50.090;18.522;2023-06-10T16:42:58;17.80;99.90
57719;DHT22;43561;50.090;18.522;2023-06-10T16:53:00;17.60;99.90
57719;DHT22;43561;50.090;18.522;2023-06-10T17:03:02;17.80;99.90
57719;DHT22;43561;50.090;18.522;2023-06-10T17:13:04;18.10;99.90
57719;DHT22;43561;50.090;18.522;2023-06-10T17:23:06;18.10;99.90
57719;DHT22;43561;50.090;18.522;2023-06-10T17:33:08;18.00;99.90
57719;DHT22;43561;50.090;18.522;2023-06-10T17:43:11;18.10;99.90
57719;DHT22;43561;50.090;18.522;2023-06-10T17:53:13;18.10;99.90
57719;DHT22;43561;50.090;18.522;2023-06-10T18:03:15;18.30;99.90
57719;DHT22;43561;50.090;18.522;2023-06-10T18:13:17;18.30;99.90
57719;DHT22;43561;50.090;18.522;2023-06-10T18:23:19;18.30;99.90
57719;DHT22;43561;50.090;18.522;2023-06-10T18:33:21;18.20;99.90
57719;DHT22;43561;50.090;18.522;2023-06-10T18:43:23;18.30;99.90
57719;DHT22;43561;50.090;18.522;2023-06-10T18:53:25;18.20;99.90
57719;DHT22;43561;50.090;18.522;2023-06-10T19:03:26;18.10;99.90
57719;DHT22;43561;50.090;18.522;2023-06-10T19:13:29;18.00;99.90
57719;DHT22;43561;50.090;18.522;2023-06-10T19:23:31;17.70;99.90
57719;DHT22;43561;50.090;18.522;2023-06-10T19:33:33;17.70;99.90
57719;DHT22;43561;50.090;18.522;2023-06-10T19:43:34;17.40;99.90
57719;DHT22;43561;50.090;18.522;2023-06-10T19:53:36;17.20;99.90
57719;DHT22;43561;50.090;18.522;2023-06-10T20:03:39;17.00;99.90
57719;DHT22;43561;50.090;18.522;2023-06-10T20:13:41;16.90;99.90
57719;DHT22;43561;50.090;18.522;2023-06-10T20:23:43;16.70;99.90
57719;DHT22;43561;50.090;18.522;2023-06-10T20:33:45;16.60;99.90
57719;DHT22;43561;50.090;18.522;2023-06-10T20:43:47;16.50;99.90
57719;DHT22;43561;50.090;18.522;2023-06-10T20:53:49;16.30;99.90
57719;DHT22;43561;50.090;18.522;2023-06-10T21:03:51;16.30;99.90
57719;DHT22;43561;50.090;18.522;2023-06-10T21:13:53;16.10;99.90
57719;DHT22;43561;50.090;18.522;2023-06-10T21:23:55;16.00;99.90
57719;DHT22;43561;50.090;18.522;2023-06-10T21:33:58;15.90;99.90
57719;DHT22;43561;50.090;18.522;2023-06-10T21:44:00;15.80;99.90
57719;DHT22;43561;50.090;18.522;2023-06-10T21:54:02;15.60;99.90
57719;DHT22;43561;50.090;18.522;2023-06-10T22:04:04;15.40;99.90
57719;DHT22;43561;50.090;18.522;2023-06-10T22:14:06;15.30;99.90
57719;DHT22;43561;50.090;18.522;2023-06-10T22:24:08;15.20;99.90
57719;DHT22;43561;50.090;18.522;2023-06-10T22:34:10;15.20;99.90
57719;DHT22;43561;50.090;18.522;2023-06-10T22:44:12;15.00;99.90
57719;DHT22;43561;50.090;18.522;2023-06-10T22:54:14;15.00;99.90
57719;DHT22;43561;50.090;18.522;2023-06-10T23:04:16;14.90;99.90
57719;DHT22;43561;50.090;18.522;2023-06-10T23:14:18;14.70;99.90
57719;DHT22;43561;50.090;18.522;2023-06-10T23:24:21;14.70;99.90
57719;DHT22;43561;50.090;18.522;2023-06-10T23:34:23;14.60;99.90
57719;DHT22;43561;50.090;18.522;2023-06-10T23:44:25;14.50;99.90
57719;DHT22;43561;50.090;18.522;2023-06-10T23:54:27;14.40;99.90
